Time;durP1;ratioP1;P1;durP2;ratioP2;P2;SDS_P1;SDS_P2;PMS_P1;PMS_P2;Temp;Humidity;BMP_temperature;BMP_pressure;BME280_temperature;BME280_humidity;BME280_pressure;Samples;Min_cycle;Max_cycle;Signal;HPM_P1;HPM_P2
2023/08/27 00:00:53;;;;;;;2.70;1.00;;;21.10;57.80;;;;;;5073215;28;20622;-56
2023/08/27 00:03:20;;;;;;;2.28;1.00;;;21.10;57.80;;;;;;5073000;28;20218;-58
2023/08/27 00:05:48;;;;;;;3.10;1.15;;;21.10;57.70;;;;;;5072937;28;20287;-50
2023/08/27 00:08:16;;;;;;;2.45;0.95;;;21.10;57.70;;;;;;5072812;28;20287;-57
2023/08/27 00:10:43;;;;;;;4.28;1.50;;;21.10;57.70;;;;;;5073156;28;20195;-56
2023/08/27 00:13:10;;;;;;;2.80;1.10;;;21.10;57.70;;;;;;5072834;28;20655;-57
2023/08/27 00:15:37;;;;;;;1.90;0.98;;;21.10;57.70;;;;;;5072843;28;20262;-53
2023/08/27 00:18:04;;;;;;;1.80;0.98;;;21.00;57.60;;;;;;5073186;28;20230;-57
2023/08/27 00:20:34;;;;;;;4.40;1.50;;;21.10;57.70;;;;;;5072443;28;20222;-54
2023/08/27 00:23:01;;;;;;;5.18;1.50;;;21.00;57.60;;;;;;5072933;28;20300;-57
2023/08/27 00:25:29;;;;;;;3.78;1.60;;;21.10;57.70;;;;;;5072541;28;20206;-57
2023/08/27 00:27:56;;;;;;;3.80;1.58;;;21.10;57.70;;;;;;5072783;28;20221;-54
2023/08/27 00:30:23;;;;;;;4.07;1.48;;;21.10;57.60;;;;;;5072340;28;20193;-54
2023/08/27 00:32:49;;;;;;;2.65;1.00;;;21.10;57.60;;;;;;5072841;28;20219;-57
2023/08/27 00:35:16;;;;;;;1.98;1.00;;;21.00;57.50;;;;;;5072221;28;20281;-55
2023/08/27 00:37:43;;;;;;;4.25;1.88;;;21.00;57.50;;;;;;5072887;28;20218;-53
2023/08/27 00:40:10;;;;;;;3.15;1.20;;;21.00;57.50;;;;;;5071868;28;20650;-53
2023/08/27 00:42:38;;;;;;;2.08;1.10;;;21.00;57.50;;;;;;5072151;28;20215;-56
2023/08/27 00:45:06;;;;;;;4.00;1.35;;;21.00;57.50;;;;;;5072168;28;20706;-49
2023/08/27 00:47:37;;;;;;;3.55;1.40;;;21.00;57.50;;;;;;5072954;28;20215;-48
2023/08/27 00:50:08;;;;;;;1.67;0.90;;;21.00;57.50;;;;;;5072119;28;20187;-55
2023/08/27 00:52:35;;;;;;;2.70;1.23;;;21.00;57.50;;;;;;5072554;28;20326;-52
2023/08/27 00:55:03;;;;;;;2.65;0.90;;;21.00;57.50;;;;;;5072165;28;20321;-50
2023/08/27 00:57:30;;;;;;;1.30;1.05;;;21.00;57.50;;;;;;5071931;28;20221;-55
2023/08/27 00:59:59;;;;;;;1.95;1.13;;;21.00;57.50;;;;;;5072347;28;20199;-51
2023/08/27 01:02:26;;;;;;;1.42;1.00;;;21.00;57.50;;;;;;5072289;28;20301;-57
2023/08/27 01:04:52;;;;;;;3.55;1.15;;;21.00;57.50;;;;;;5072117;28;20218;-52
2023/08/27 01:07:27;;;;;;;3.08;1.15;;;21.00;57.50;;;;;;5072126;28;20584;-55
2023/08/27 01:10:02;;;;;;;4.47;1.08;;;21.00;57.50;;;;;;5072266;28;20285;-55
2023/08/27 01:12:37;;;;;;;1.58;1.00;;;21.00;57.50;;;;;;5071915;28;20275;-58
2023/08/27 01:15:08;;;;;;;3.08;0.98;;;21.00;57.50;;;;;;5072267;28;20194;-49
2023/08/27 01:17:37;;;;;;;3.70;1.35;;;21.00;57.50;;;;;;5072164;28;20214;-52
2023/08/27 01:20:08;;;;;;;3.17;1.15;;;21.00;57.40;;;;;;5071908;28;20195;-58
2023/08/27 01:22:37;;;;;;;2.80;0.95;;;21.00;57.50;;;;;;5072672;28;20218;-52
2023/08/27 01:25:06;;;;;;;3.38;0.93;;;21.00;57.50;;;;;;5072068;28;20231;-51
2023/08/27 01:27:43;;;;;;;2.17;1.35;;;21.00;57.40;;;;;;5071559;28;20214;-54
2023/08/27 01:30:16;;;;;;;2.05;1.10;;;21.00;57.40;;;;;;5071761;28;20198;-52
2023/08/27 01:32:48;;;;;;;1.98;1.23;;;21.00;57.40;;;;;;5071639;28;20215;-57
2023/08/27 01:35:16;;;;;;;1.58;0.95;;;21.00;57.50;;;;;;5072048;28;20195;-53
2023/08/27 01:37:45;;;;;;;2.45;0.88;;;21.00;57.40;;;;;;5072155;28;20211;-54
2023/08/27 01:40:12;;;;;;;3.08;1.00;;;20.90;57.30;;;;;;5071293;28;20199;-57
2023/08/27 01:42:39;;;;;;;1.50;1.10;;;21.00;57.40;;;;;;5071738;28;20701;-54
2023/08/27 01:45:07;;;;;;;5.93;1.30;;;21.00;57.40;;;;;;5071891;28;20312;-55
2023/08/27 01:47:34;;;;;;;2.78;1.25;;;21.00;57.40;;;;;;5071711;28;20302;-55
2023/08/27 01:50:01;;;;;;;2.28;1.08;;;21.00;57.40;;;;;;5071928;28;20614;-57
2023/08/27 01:52:27;;;;;;;3.75;1.50;;;21.00;57.40;;;;;;5075427;28;20219;-51
2023/08/27 01:54:56;;;;;;;2.03;0.98;;;21.00;57.40;;;;;;5075305;28;20325;-56
2023/08/27 01:57:22;;;;;;;2.08;1.05;;;21.00;57.30;;;;;;5075724;28;20222;-57
2023/08/27 01:59:49;;;;;;;3.58;1.20;;;21.00;57.30;;;;;;5075323;28;20183;-54
2023/08/27 02:02:16;;;;;;;3.03;1.02;;;21.00;57.30;;;;;;5075122;28;20215;-56
2023/08/27 02:04:43;;;;;;;3.00;1.20;;;21.00;57.40;;;;;;5075037;28;20218;-55
2023/08/27 02:07:10;;;;;;;2.15;1.35;;;21.00;57.30;;;;;;5075250;28;20214;-55
2023/08/27 02:09:37;;;;;;;3.53;1.20;;;21.00;57.40;;;;;;5075413;28;20218;-52
2023/08/27 02:12:07;;;;;;;3.00;1.02;;;21.00;57.30;;;;;;5075033;28;20223;-56
2023/08/27 02:14:33;;;;;;;2.25;1.10;;;20.90;57.30;;;;;;5075293;28;20183;-55
2023/08/27 02:17:00;;;;;;;2.63;1.08;;;21.00;57.30;;;;;;5075218;28;20217;-56
2023/08/27 02:19:27;;;;;;;3.33;0.98;;;21.00;57.30;;;;;;5074563;28;20193;-56
2023/08/27 02:21:54;;;;;;;2.38;0.93;;;20.90;57.20;;;;;;5075066;28;20331;-50
2023/08/27 02:24:21;;;;;;;2.63;1.13;;;21.00;57.40;;;;;;5075118;28;20242;-56
2023/08/27 02:26:48;;;;;;;2.13;1.20;;;21.00;57.30;;;;;;5074676;28;20306;-56
2023/08/27 02:29:16;;;;;;;2.15;1.10;;;20.90;57.20;;;;;;5075061;28;20265;-53
2023/08/27 02:31:43;;;;;;;1.92;0.88;;;21.00;57.30;;;;;;5074854;28;20268;-54
2023/08/27 02:34:09;;;;;;;2.65;1.02;;;20.90;57.20;;;;;;5074359;28;20191;-53
2023/08/27 02:36:36;;;;;;;2.95;1.30;;;21.00;57.30;;;;;;5074791;28;20219;-52
2023/08/27 02:39:03;;;;;;;4.03;1.75;;;20.90;57.20;;;;;;5074855;28;20197;-52
2023/08/27 02:41:30;;;;;;;2.70;0.93;;;20.90;57.20;;;;;;5074332;28;20240;-51
2023/08/27 02:43:57;;;;;;;3.28;0.95;;;20.90;57.20;;;;;;5074669;28;20221;-55
2023/08/27 02:46:25;;;;;;;2.35;1.10;;;20.90;57.20;;;;;;5074330;28;20591;-53
2023/08/27 02:48:52;;;;;;;2.45;1.20;;;20.90;57.20;;;;;;5074071;28;20743;-49
2023/08/27 02:51:19;;;;;;;2.00;1.13;;;20.90;57.20;;;;;;5074486;28;20310;-56
2023/08/27 02:53:46;;;;;;;3.00;1.13;;;20.90;57.20;;;;;;5074219;28;20664;-56
2023/08/27 02:56:12;;;;;;;3.25;1.23;;;20.90;57.20;;;;;;5073794;28;20584;-54
2023/08/27 02:58:39;;;;;;;2.35;1.00;;;20.90;57.20;;;;;;5074769;28;20195;-50
2023/08/27 03:01:06;;;;;;;5.07;1.27;;;20.90;57.20;;;;;;5074194;28;20302;-51
2023/08/27 03:03:34;;;;;;;2.20;0.93;;;20.90;57.20;;;;;;5073456;28;20748;-57
2023/08/27 03:06:01;;;;;;;1.73;0.85;;;20.90;57.20;;;;;;5074104;28;20282;-56
2023/08/27 03:08:28;;;;;;;1.95;0.82;;;20.90;57.20;;;;;;5074267;28;20193;-56
2023/08/27 03:10:55;;;;;;;2.17;1.00;;;20.90;57.10;;;;;;5073588;28;20187;-58
2023/08/27 03:13:22;;;;;;;2.42;0.90;;;20.90;57.80;;;;;;5074100;28;20191;-57
2023/08/27 03:15:49;;;;;;;3.80;0.98;;;20.80;57.10;;;;;;5073894;28;20209;-54
2023/08/27 03:18:16;;;;;;;3.35;1.30;;;20.90;57.20;;;;;;5073673;28;20222;-58
2023/08/27 03:20:44;;;;;;;4.57;1.00;;;20.90;57.20;;;;;;5074051;28;20202;-51
2023/08/27 03:23:11;;;;;;;1.48;0.90;;;20.90;57.20;;;;;;5073877;28;20310;-55
2023/08/27 03:25:38;;;;;;;2.90;1.35;;;20.90;57.20;;;;;;5073690;28;20222;-53
2023/08/27 03:28:05;;;;;;;1.38;0.90;;;20.90;57.20;;;;;;5073835;28;20306;-51
2023/08/27 03:30:32;;;;;;;2.83;1.10;;;20.90;57.20;;;;;;5073832;28;20187;-57
2023/08/27 03:32:59;;;;;;;2.55;1.10;;;20.90;57.20;;;;;;5073281;28;20325;-54
2023/08/27 03:35:25;;;;;;;2.63;1.15;;;20.90;57.10;;;;;;5073517;28;20647;-52
2023/08/27 03:37:54;;;;;;;2.75;0.93;;;20.90;57.20;;;;;;5073895;28;20218;-53
2023/08/27 03:40:21;;;;;;;1.75;0.90;;;20.90;57.20;;;;;;5073021;28;20193;-54
2023/08/27 03:42:48;;;;;;;2.85;1.10;;;20.80;57.00;;;;;;5073061;28;20601;-55
2023/08/27 03:45:15;;;;;;;2.30;1.00;;;20.90;57.10;;;;;;5073566;28;20301;-54
2023/08/27 03:47:42;;;;;;;1.90;0.93;;;20.90;57.10;;;;;;5073149;28;20225;-53
2023/08/27 03:50:09;;;;;;;3.78;1.00;;;20.90;57.10;;;;;;5073417;28;20277;-52
2023/08/27 03:52:36;;;;;;;1.90;1.02;;;20.90;57.10;;;;;;5072990;28;20287;-52
2023/08/27 03:55:05;;;;;;;1.52;0.90;;;20.90;57.10;;;;;;5070570;28;20313;-52
2023/08/27 03:57:32;;;;;;;3.60;1.20;;;20.90;57.10;;;;;;5073178;28;20313;-52
2023/08/27 03:59:58;;;;;;;2.35;0.90;;;20.90;57.10;;;;;;5073257;28;20201;-52
2023/08/27 04:02:25;;;;;;;4.80;0.98;;;20.90;57.20;;;;;;5072430;28;20569;-52
2023/08/27 04:04:52;;;;;;;5.10;1.20;;;20.90;57.10;;;;;;5073018;28;20219;-55
2023/08/27 04:07:19;;;;;;;2.75;1.20;;;20.90;57.10;;;;;;5073014;28;20578;-55
2023/08/27 04:09:46;;;;;;;2.25;1.00;;;20.90;57.10;;;;;;5072733;28;20195;-58
2023/08/27 04:12:14;;;;;;;4.75;1.10;;;20.80;57.10;;;;;;5072763;28;20231;-55
2023/08/27 04:14:41;;;;;;;2.13;0.90;;;20.80;57.10;;;;;;5072269;28;20197;-53
2023/08/27 04:17:07;;;;;;;4.07;1.13;;;20.90;57.20;;;;;;5072185;28;20218;-54
2023/08/27 04:19:34;;;;;;;5.88;1.25;;;20.80;57.10;;;;;;5072891;28;20197;-50
2023/08/27 04:22:01;;;;;;;2.08;0.85;;;20.80;57.10;;;;;;5072827;28;20225;-56
2023/08/27 04:24:29;;;;;;;2.40;1.00;;;20.90;57.20;;;;;;5072467;28;20214;-48
2023/08/27 04:26:58;;;;;;;3.47;1.15;;;20.80;57.10;;;;;;5072848;28;20218;-58
2023/08/27 04:29:26;;;;;;;2.47;0.98;;;20.80;57.10;;;;;;5073011;28;20187;-56
2023/08/27 04:31:53;;;;;;;2.30;1.00;;;20.80;57.10;;;;;;5072368;28;20266;-56
2023/08/27 04:34:20;;;;;;;4.45;1.17;;;20.80;57.10;;;;;;5072657;28;20266;-56
2023/08/27 04:36:47;;;;;;;3.78;0.85;;;20.80;57.10;;;;;;5072682;28;20218;-53
2023/08/27 04:39:14;;;;;;;1.58;0.90;;;20.80;57.20;;;;;;5072204;28;20182;-54
2023/08/27 04:41:41;;;;;;;1.70;1.10;;;20.80;57.20;;;;;;5072370;28;20711;-56
2023/08/27 04:44:08;;;;;;;2.55;0.98;;;20.80;57.10;;;;;;5072191;28;20197;-52
2023/08/27 04:46:36;;;;;;;3.08;1.27;;;20.80;57.10;;;;;;5072522;28;20222;-55
2023/08/27 04:49:03;;;;;;;1.65;0.75;;;20.80;57.10;;;;;;5072360;28;20187;-55
2023/08/27 04:51:30;;;;;;;3.38;0.95;;;20.80;57.20;;;;;;5072372;28;20227;-56
2023/08/27 04:53:57;;;;;;;4.43;1.15;;;20.80;57.10;;;;;;5071962;28;20197;-50
2023/08/27 04:56:24;;;;;;;1.80;0.98;;;20.80;57.10;;;;;;5072135;28;20292;-54
2023/08/27 04:58:51;;;;;;;2.60;0.90;;;20.80;57.20;;;;;;5072356;28;20201;-55
2023/08/27 05:01:18;;;;;;;1.42;0.90;;;20.80;57.20;;;;;;5071926;28;20197;-52
2023/08/27 05:03:46;;;;;;;3.25;1.20;;;20.80;57.20;;;;;;5072520;28;20199;-52
2023/08/27 05:06:13;;;;;;;3.15;1.15;;;20.80;57.20;;;;;;5072199;28;20301;-55
2023/08/27 05:08:42;;;;;;;3.30;1.10;;;20.80;57.20;;;;;;5071738;28;20205;-53
2023/08/27 05:11:08;;;;;;;1.92;1.00;;;20.80;57.20;;;;;;5072185;28;20191;-50
2023/08/27 05:13:35;;;;;;;3.28;1.40;;;20.80;57.20;;;;;;5072194;28;20186;-55
2023/08/27 05:16:02;;;;;;;2.45;1.40;;;20.80;57.20;;;;;;5071506;28;20277;-54
2023/08/27 05:18:29;;;;;;;1.80;1.05;;;20.80;57.20;;;;;;5071689;28;20638;-52
2023/08/27 05:20:57;;;;;;;2.25;0.90;;;20.80;57.20;;;;;;5072060;28;20274;-53
2023/08/27 05:23:26;;;;;;;1.85;1.10;;;20.80;57.30;;;;;;5071469;28;20719;-51
2023/08/27 05:25:52;;;;;;;2.53;0.88;;;20.80;57.30;;;;;;5074714;28;20221;-54
2023/08/27 05:28:19;;;;;;;2.35;1.02;;;20.80;57.20;;;;;;5076208;28;20220;-56
2023/08/27 05:30:46;;;;;;;4.75;1.20;;;20.70;57.20;;;;;;5075691;28;20256;-53
2023/08/27 05:33:13;;;;;;;2.55;0.88;;;20.80;57.30;;;;;;5076135;28;20215;-54
2023/08/27 05:35:41;;;;;;;2.80;0.90;;;20.80;57.30;;;;;;5076057;28;20270;-47
2023/08/27 05:38:09;;;;;;;2.03;0.95;;;20.80;57.30;;;;;;5075366;28;20708;-48
2023/08/27 05:40:36;;;;;;;2.85;1.00;;;20.80;57.30;;;;;;5075969;28;20187;-55
2023/08/27 05:43:03;;;;;;;2.25;1.15;;;20.80;57.30;;;;;;5075795;28;20214;-53
2023/08/27 05:45:30;;;;;;;1.65;1.00;;;20.80;57.30;;;;;;5075144;28;20316;-54
2023/08/27 05:47:57;;;;;;;2.70;1.20;;;20.80;57.30;;;;;;5075508;28;20221;-55
2023/08/27 05:50:24;;;;;;;2.05;1.23;;;20.80;57.40;;;;;;5075480;28;20583;-54
2023/08/27 05:52:51;;;;;;;2.25;1.00;;;20.80;57.40;;;;;;5075388;28;20284;-51
2023/08/27 05:55:19;;;;;;;2.88;1.13;;;20.80;57.40;;;;;;5075110;28;20226;-53
2023/08/27 05:57:46;;;;;;;3.80;1.30;;;20.80;57.40;;;;;;5075860;28;20215;-53
2023/08/27 06:00:14;;;;;;;2.47;1.00;;;20.80;57.40;;;;;;5075169;28;20191;-57
2023/08/27 06:02:41;;;;;;;4.38;1.30;;;20.80;57.40;;;;;;5075577;28;20312;-50
2023/08/27 06:05:09;;;;;;;2.15;1.05;;;20.80;57.40;;;;;;5075031;28;20591;-50
2023/08/27 06:07:36;;;;;;;1.65;1.10;;;20.80;57.40;;;;;;5074976;28;20226;-53
2023/08/27 06:10:03;;;;;;;3.97;1.13;;;20.80;57.40;;;;;;5075173;28;20727;-51
2023/08/27 06:12:31;;;;;;;3.13;1.30;;;20.80;57.40;;;;;;5075474;28;20297;-50
2023/08/27 06:14:58;;;;;;;2.83;1.00;;;20.70;57.30;;;;;;5075005;28;20278;-53
2023/08/27 06:17:24;;;;;;;2.05;0.90;;;20.80;57.40;;;;;;5074979;28;20301;-55
2023/08/27 06:19:51;;;;;;;2.00;0.88;;;20.80;57.40;;;;;;5074959;28;20191;-55
2023/08/27 06:22:18;;;;;;;1.95;0.77;;;20.80;57.40;;;;;;5074879;28;20223;-53
2023/08/27 06:24:45;;;;;;;1.98;1.00;;;20.80;58.10;;;;;;5075198;28;20193;-54
2023/08/27 06:27:14;;;;;;;3.70;0.98;;;20.70;57.30;;;;;;5074888;28;20791;-55
2023/08/27 06:29:44;;;;;;;1.95;1.05;;;20.80;57.40;;;;;;5074759;28;20183;-54
2023/08/27 06:32:11;;;;;;;2.03;0.80;;;20.80;57.40;;;;;;5075048;28;20321;-56
2023/08/27 06:34:37;;;;;;;2.35;1.30;;;20.80;57.40;;;;;;5075040;28;20274;-56
2023/08/27 06:37:04;;;;;;;2.50;1.00;;;20.80;57.40;;;;;;5073496;28;20315;-55
2023/08/27 06:39:31;;;;;;;1.88;0.90;;;20.80;57.40;;;;;;5074597;28;20617;-56
2023/08/27 06:41:58;;;;;;;2.38;1.10;;;20.80;57.50;;;;;;5074474;28;20215;-49
2023/08/27 06:44:25;;;;;;;1.65;0.90;;;20.80;57.50;;;;;;5074161;28;20569;-54
2023/08/27 06:46:53;;;;;;;2.13;1.05;;;20.80;57.50;;;;;;5074454;28;20297;-53
2023/08/27 06:49:20;;;;;;;1.50;1.00;;;20.80;57.50;;;;;;5074711;28;20612;-51
2023/08/27 06:51:47;;;;;;;2.25;0.90;;;20.80;57.50;;;;;;5073687;28;20313;-52
2023/08/27 06:54:13;;;;;;;1.33;0.80;;;20.70;57.40;;;;;;5074552;28;20193;-52
2023/08/27 06:56:40;;;;;;;2.05;0.90;;;20.70;57.40;;;;;;5074125;28;20230;-53
2023/08/27 06:59:07;;;;;;;2.05;0.90;;;20.80;57.50;;;;;;5074207;28;20225;-52
2023/08/27 07:01:34;;;;;;;4.68;0.70;;;20.80;57.50;;;;;;5074464;28;20225;-57
2023/08/27 07:04:03;;;;;;;3.85;1.10;;;20.80;57.50;;;;;;5074392;28;20183;-55
2023/08/27 07:06:31;;;;;;;1.42;0.77;;;20.80;57.50;;;;;;5074082;28;20242;-53
2023/08/27 07:08:58;;;;;;;2.25;0.90;;;20.80;57.50;;;;;;5074061;28;20308;-56
2023/08/27 07:11:25;;;;;;;1.35;0.80;;;20.70;57.50;;;;;;5074306;28;20268;-56
2023/08/27 07:13:51;;;;;;;1.88;0.77;;;20.80;57.50;;;;;;5073946;28;20281;-57
2023/08/27 07:16:19;;;;;;;1.52;0.73;;;20.80;57.60;;;;;;5074196;28;20191;-56
2023/08/27 07:18:46;;;;;;;1.63;0.82;;;20.80;57.50;;;;;;5074132;28;20183;-56
2023/08/27 07:21:14;;;;;;;1.38;0.80;;;20.80;58.20;;;;;;5073361;28;20198;-55
2023/08/27 07:23:41;;;;;;;1.83;0.95;;;20.80;57.60;;;;;;5073439;28;20657;-55
2023/08/27 07:26:08;;;;;;;2.55;0.90;;;20.80;57.60;;;;;;5073917;28;20225;-57
2023/08/27 07:28:35;;;;;;;2.03;1.10;;;20.80;57.60;;;;;;5073350;28;20693;-56
2023/08/27 07:31:02;;;;;;;2.38;1.10;;;20.80;57.60;;;;;;5073785;28;20202;-56
2023/08/27 07:33:28;;;;;;;1.42;0.70;;;20.80;57.60;;;;;;5073785;28;20218;-56
2023/08/27 07:35:55;;;;;;;1.73;0.85;;;20.90;57.70;;;;;;5073486;28;20197;-55
2023/08/27 07:38:27;;;;;;;1.13;0.88;;;20.80;57.60;;;;;;5073907;28;20215;-57
2023/08/27 07:40:54;;;;;;;1.48;0.77;;;20.80;57.70;;;;;;5073724;28;20282;-55
2023/08/27 07:43:21;;;;;;;5.07;0.90;;;20.80;58.30;;;;;;5073457;28;20279;-54
2023/08/27 07:45:48;;;;;;;2.70;0.90;;;20.80;57.70;;;;;;5073521;28;20214;-53
2023/08/27 07:48:15;;;;;;;1.60;0.70;;;20.80;57.70;;;;;;5072834;28;20221;-55
2023/08/27 07:50:41;;;;;;;1.88;1.00;;;20.80;57.70;;;;;;5073158;28;20277;-56
2023/08/27 07:53:08;;;;;;;3.42;0.90;;;20.80;57.80;;;;;;5073252;28;20217;-56
2023/08/27 07:55:37;;;;;;;2.67;0.90;;;20.80;57.70;;;;;;5073088;28;20227;-56
2023/08/27 07:58:04;;;;;;;2.80;0.98;;;20.80;57.70;;;;;;5073092;28;20309;-56
2023/08/27 08:00:31;;;;;;;1.83;0.80;;;20.80;57.80;;;;;;5073250;28;20193;-57
2023/08/27 08:02:58;;;;;;;1.60;0.75;;;20.90;57.80;;;;;;5073353;28;20264;-57
2023/08/27 08:05:25;;;;;;;1.90;1.00;;;20.80;57.80;;;;;;5072755;28;20187;-54
2023/08/27 08:07:52;;;;;;;1.95;0.88;;;20.80;57.80;;;;;;5073268;28;20306;-55
2023/08/27 08:10:20;;;;;;;1.30;0.75;;;20.80;57.80;;;;;;5073210;28;20192;-57
2023/08/27 08:12:49;;;;;;;2.20;1.08;;;20.80;57.80;;;;;;5072820;28;20312;-56
2023/08/27 08:15:16;;;;;;;2.00;0.90;;;20.80;57.90;;;;;;5073116;28;20214;-57
2023/08/27 08:17:44;;;;;;;1.50;0.90;;;20.80;57.90;;;;;;5072886;28;20250;-57
2023/08/27 08:20:11;;;;;;;2.58;0.98;;;20.90;58.00;;;;;;5072505;28;20190;-56
2023/08/27 08:22:38;;;;;;;1.50;0.88;;;20.80;57.90;;;;;;5072620;28;20715;-57
2023/08/27 08:25:06;;;;;;;1.48;0.82;;;20.80;57.90;;;;;;5072893;28;20278;-53
2023/08/27 08:27:33;;;;;;;2.08;1.00;;;20.90;58.10;;;;;;5072505;28;20226;-53
2023/08/27 08:30:01;;;;;;;1.33;0.90;;;20.90;58.10;;;;;;5072140;28;20580;-56
2023/08/27 08:32:28;;;;;;;1.10;0.98;;;20.90;58.10;;;;;;5072602;28;20301;-57
2023/08/27 08:34:55;;;;;;;1.42;0.80;;;20.90;58.10;;;;;;5072109;28;20187;-57
2023/08/27 08:37:22;;;;;;;0.88;0.88;;;20.80;58.10;;;;;;5072684;28;20301;-56
2023/08/27 08:39:49;;;;;;;1.75;0.90;;;20.80;58.10;;;;;;5072432;28;20641;-58
2023/08/27 08:42:21;;;;;;;1.23;0.80;;;20.90;58.10;;;;;;5072302;28;20222;-56
2023/08/27 08:44:55;;;;;;;1.42;0.70;;;20.90;58.20;;;;;;5072895;28;20201;-55
2023/08/27 08:47:27;;;;;;;2.25;0.80;;;20.80;58.10;;;;;;5072264;28;20779;-56
2023/08/27 08:49:55;;;;;;;3.00;1.00;;;20.90;58.20;;;;;;5072358;28;20282;-56
2023/08/27 08:52:27;;;;;;;0.90;0.82;;;20.90;58.30;;;;;;5072159;28;20723;-53
2023/08/27 08:54:56;;;;;;;1.20;0.75;;;20.80;58.10;;;;;;5072234;28;20317;-56
2023/08/27 08:57:27;;;;;;;1.73;0.88;;;20.80;58.20;;;;;;5071924;28;20221;-56
2023/08/27 08:59:55;;;;;;;1.65;0.82;;;20.90;58.30;;;;;;5072035;28;20187;-56
2023/08/27 09:02:23;;;;;;;3.20;1.08;;;20.80;58.30;;;;;;5071849;28;20700;-52
2023/08/27 09:04:51;;;;;;;1.52;1.05;;;20.80;58.20;;;;;;5071913;28;20193;-52
2023/08/27 09:07:19;;;;;;;1.52;1.08;;;20.90;58.40;;;;;;5072312;28;20649;-55
2023/08/27 09:09:49;;;;;;;2.08;0.80;;;20.90;58.30;;;;;;5072257;28;20293;-55
2023/08/27 09:12:17;;;;;;;3.28;1.00;;;20.80;58.30;;;;;;5072006;28;20220;-54
2023/08/27 09:14:44;;;;;;;3.08;1.13;;;20.90;58.40;;;;;;5072253;28;20274;-58
2023/08/27 09:17:13;;;;;;;2.38;0.77;;;20.80;58.40;;;;;;5072141;28;20211;-53
2023/08/27 09:19:41;;;;;;;2.53;1.08;;;20.90;58.40;;;;;;5071844;28;20568;-56
2023/08/27 09:22:08;;;;;;;2.80;1.15;;;20.90;58.50;;;;;;5071865;28;20218;-57
2023/08/27 09:24:35;;;;;;;1.88;0.80;;;20.90;58.50;;;;;;5072201;28;20191;-56
2023/08/27 09:27:02;;;;;;;2.15;0.80;;;20.80;58.40;;;;;;5071746;28;20599;-57
2023/08/27 09:29:30;;;;;;;3.15;1.15;;;20.90;58.50;;;;;;5071855;28;20639;-57
2023/08/27 09:31:57;;;;;;;1.65;0.98;;;20.90;58.50;;;;;;5071734;28;20705;-58
2023/08/27 09:34:25;;;;;;;1.55;0.88;;;20.90;58.50;;;;;;5071407;28;20209;-56
2023/08/27 09:36:53;;;;;;;1.63;0.73;;;20.90;58.50;;;;;;5071946;28;20637;-57
2023/08/27 09:39:20;;;;;;;1.55;0.90;;;20.90;58.50;;;;;;5071680;28;20193;-56
2023/08/27 09:41:47;;;;;;;2.63;0.80;;;20.80;58.50;;;;;;5071632;28;20226;-57
2023/08/27 09:44:15;;;;;;;1.80;1.00;;;20.90;58.60;;;;;;5071888;28;20264;-57
2023/08/27 09:46:43;;;;;;;1.60;0.90;;;20.80;58.50;;;;;;5071778;28;20241;-54
2023/08/27 09:49:10;;;;;;;5.07;0.88;;;20.80;58.50;;;;;;5071561;28;20194;-57
2023/08/27 09:51:39;;;;;;;2.35;1.10;;;20.80;58.50;;;;;;5071812;28;20289;-57
2023/08/27 09:54:16;;;;;;;4.38;1.27;;;20.80;58.50;;;;;;5071935;28;20195;-56
2023/08/27 09:56:46;;;;;;;2.28;1.10;;;20.90;58.60;;;;;;5051150;28;20334;-56
2023/08/27 09:59:15;;;;;;;1.63;0.90;;;20.80;58.50;;;;;;5051745;28;20184;-57
2023/08/27 10:01:46;;;;;;;1.73;0.95;;;20.90;58.60;;;;;;5051370;28;20196;-56
2023/08/27 10:04:12;;;;;;;3.40;0.90;;;20.90;58.60;;;;;;5051345;28;20183;-53
2023/08/27 10:06:39;;;;;;;2.17;0.98;;;20.80;58.60;;;;;;5051281;28;20211;-53
2023/08/27 10:09:07;;;;;;;1.92;1.00;;;20.90;58.60;;;;;;5051651;28;20198;-56
2023/08/27 10:11:36;;;;;;;2.58;1.15;;;20.90;58.60;;;;;;5051616;28;20275;-55
2023/08/27 10:14:04;;;;;;;1.85;0.95;;;20.80;58.60;;;;;;5055293;28;20210;-58
2023/08/27 10:16:34;;;;;;;2.28;1.00;;;20.90;58.60;;;;;;5055239;28;20564;-56
2023/08/27 10:19:02;;;;;;;2.47;1.35;;;20.80;58.50;;;;;;5054935;28;20206;-56
2023/08/27 10:21:30;;;;;;;1.75;1.00;;;20.90;58.60;;;;;;5055161;28;20195;-58
2023/08/27 10:23:57;;;;;;;2.30;1.05;;;20.90;58.60;;;;;;5054899;28;20646;-58
2023/08/27 10:26:25;;;;;;;2.17;1.20;;;20.90;58.60;;;;;;5054556;28;20215;-57
2023/08/27 10:28:54;;;;;;;3.25;1.20;;;20.90;58.60;;;;;;5054847;28;20639;-56
2023/08/27 10:31:21;;;;;;;4.75;1.10;;;20.90;58.60;;;;;;5054916;28;20199;-57
2023/08/27 10:33:48;;;;;;;2.35;0.90;;;20.90;58.60;;;;;;5054612;28;20215;-55
2023/08/27 10:36:19;;;;;;;2.13;0.95;;;20.80;58.50;;;;;;5054681;28;20640;-51
2023/08/27 10:38:47;;;;;;;3.03;0.90;;;20.90;58.60;;;;;;5054622;28;20215;-51
2023/08/27 10:41:16;;;;;;;2.55;1.10;;;20.90;58.60;;;;;;5054491;28;20290;-57
2023/08/27 10:43:43;;;;;;;2.08;1.00;;;20.80;58.50;;;;;;5055001;28;20222;-57
2023/08/27 10:46:11;;;;;;;2.67;1.00;;;20.80;58.50;;;;;;5054753;28;20184;-57
2023/08/27 10:48:39;;;;;;;2.58;0.98;;;20.90;58.60;;;;;;5053950;28;20701;-55
2023/08/27 10:51:11;;;;;;;4.30;1.30;;;20.90;58.50;;;;;;5054728;28;20198;-52
2023/08/27 10:53:53;;;;;;;2.38;0.93;;;20.90;58.60;;;;;;5054647;28;20211;-55
2023/08/27 10:56:28;;;;;;;1.27;0.85;;;20.90;58.60;;;;;;5070732;28;20682;-54
2023/08/27 10:58:58;;;;;;;3.45;1.30;;;20.90;58.50;;;;;;5074495;28;20561;-56
2023/08/27 11:01:27;;;;;;;1.30;0.80;;;20.80;58.40;;;;;;5074385;28;20194;-52
2023/08/27 11:03:58;;;;;;;2.00;1.08;;;20.90;58.50;;;;;;5073948;28;20194;-55
2023/08/27 11:06:49;;;;;;;2.85;1.08;;;20.80;58.40;;;;;;5074394;28;20213;-53
2023/08/27 11:09:18;;;;;;;2.58;0.98;;;20.80;58.30;;;;;;5059002;28;20211;-56
2023/08/27 11:11:51;;;;;;;3.17;1.20;;;20.80;58.30;;;;;;5073530;28;20187;-57
2023/08/27 11:14:20;;;;;;;1.83;1.00;;;20.80;59.10;;;;;;5074337;28;20190;-54
2023/08/27 11:16:53;;;;;;;1.55;0.95;;;20.80;58.40;;;;;;5074167;28;20198;-57
2023/08/27 11:19:29;;;;;;;1.88;0.85;;;20.80;58.40;;;;;;5073405;28;20740;-50
2023/08/27 11:22:06;;;;;;;4.55;1.20;;;20.80;58.40;;;;;;5074118;28;20218;-55
2023/08/27 11:24:32;;;;;;;6.05;1.05;;;20.80;58.30;;;;;;5073801;28;20214;-52
2023/08/27 11:27:02;;;;;;;3.92;1.10;;;20.80;58.30;;;;;;5073482;28;20256;-54
2023/08/27 11:29:30;;;;;;;1.98;1.02;;;20.80;58.30;;;;;;5073914;28;20191;-55
2023/08/27 11:32:00;;;;;;;2.50;0.85;;;20.80;58.30;;;;;;5073905;28;20210;-54
2023/08/27 11:34:34;;;;;;;1.45;1.00;;;20.80;58.30;;;;;;5073576;28;20187;-55
2023/08/27 11:37:02;;;;;;;2.05;1.30;;;20.90;58.40;;;;;;5073810;28;20214;-50
2023/08/27 11:39:29;;;;;;;3.30;0.95;;;20.80;58.30;;;;;;5073701;28;20303;-51
2023/08/27 11:41:56;;;;;;;1.95;0.80;;;20.80;58.20;;;;;;5072813;28;20225;-50
2023/08/27 11:44:23;;;;;;;3.05;1.10;;;20.90;58.40;;;;;;5073631;28;20278;-53
2023/08/27 11:46:51;;;;;;;2.65;1.10;;;20.80;58.30;;;;;;5073276;28;20755;-55
2023/08/27 11:49:29;;;;;;;3.10;1.20;;;20.80;58.20;;;;;;5073321;28;20659;-56
2023/08/27 11:51:57;;;;;;;1.30;0.98;;;20.80;58.20;;;;;;5073623;28;20214;-54
2023/08/27 11:54:28;;;;;;;5.38;1.30;;;20.80;58.20;;;;;;5073217;28;20274;-51
2023/08/27 11:56:56;;;;;;;2.55;1.00;;;20.80;58.20;;;;;;5073136;28;20652;-51
2023/08/27 11:59:26;;;;;;;1.70;0.60;;;20.80;58.20;;;;;;5073296;28;20238;-52
2023/08/27 12:01:53;;;;;;;2.88;0.90;;;20.80;58.20;;;;;;5072849;28;20219;-52
2023/08/27 12:04:21;;;;;;;2.10;0.98;;;20.80;58.30;;;;;;5073237;28;20194;-57
2023/08/27 12:06:52;;;;;;;1.92;1.05;;;20.80;58.30;;;;;;5073043;28;20225;-54
2023/08/27 12:09:26;;;;;;;4.18;1.08;;;20.80;58.30;;;;;;5072746;28;20191;-54
2023/08/27 12:11:53;;;;;;;2.10;1.08;;;20.80;58.30;;;;;;5073027;28;20219;-54
2023/08/27 12:14:25;;;;;;;3.67;1.08;;;20.80;58.20;;;;;;5072750;28;20201;-55
2023/08/27 12:16:52;;;;;;;1.25;0.82;;;20.80;58.20;;;;;;5072810;28;20230;-58
2023/08/27 12:19:22;;;;;;;2.70;1.02;;;20.90;58.30;;;;;;5072924;28;20282;-56
2023/08/27 12:21:51;;;;;;;2.22;1.05;;;20.90;58.30;;;;;;5073070;28;20191;-53
2023/08/27 12:24:28;;;;;;;1.27;1.02;;;20.90;58.30;;;;;;5072546;28;20236;-56
2023/08/27 12:26:55;;;;;;;1.42;0.90;;;20.80;58.20;;;;;;5072796;28;20317;-54
2023/08/27 12:29:22;;;;;;;1.65;0.90;;;20.80;58.20;;;;;;5072889;28;20197;-55
2023/08/27 12:31:52;;;;;;;2.40;1.00;;;20.80;58.10;;;;;;5072316;28;20187;-48
2023/08/27 12:34:19;;;;;;;1.38;1.00;;;20.80;58.20;;;;;;5072081;28;20197;-56
2023/08/27 12:36:47;;;;;;;2.35;1.05;;;20.90;58.20;;;;;;5072697;28;20190;-58
2023/08/27 12:39:14;;;;;;;2.72;0.93;;;20.80;58.10;;;;;;5072164;28;20182;-55
2023/08/27 12:41:41;;;;;;;3.20;1.25;;;20.80;58.10;;;;;;5072493;28;20193;-56
2023/08/27 12:44:08;;;;;;;2.28;0.80;;;20.90;58.20;;;;;;5072678;28;20197;-49
2023/08/27 12:46:36;;;;;;;2.70;1.00;;;20.90;58.20;;;;;;5071846;28;20198;-54
2023/08/27 12:49:02;;;;;;;2.15;1.08;;;20.90;58.30;;;;;;5072595;28;20306;-54
2023/08/27 12:51:29;;;;;;;1.98;1.05;;;20.90;58.20;;;;;;5072102;28;20193;-49